This is the latest recevied weather packets stored in our database for station/object KR4BRU. If no packets are shown the sender has not sent any weather packets the latest 10 day(s).
| Time | Temp. | Humidity | Pressure | Rain* | Wind** | Luminosity | Snow |
|---|---|---|---|---|---|---|---|
| 1777916702 | 26.67° C | 34% | 1011.6 hPa | 0 mm | - | 954 W/m² | - |
| 1777916101 | 25° C | 36% | 1011.8 hPa | 0 mm | - | 989 W/m² | - |
| 1777915500 | 26.11° C | 34% | 1012 hPa | 0 mm | - | 970 W/m² | - |
| 1777914900 | 25° C | 37% | 1012.1 hPa | 0 mm | - | 959 W/m² | - |
| 1777914299 | 25° C | 35% | 1012.4 hPa | 0 mm | - | 946 W/m² | - |
| 1777913698 | 25.56° C | 36% | 1012.4 hPa | 0 mm | - | 986 W/m² | - |
| 1777913097 | 24.44° C | 37% | 1012.5 hPa | 0 mm | - | 925 W/m² | - |
| 1777912495 | 24.44° C | 36% | 1012.8 hPa | 0 mm | - | 591 W/m² | - |
| 1777911894 | 23.89° C | 36% | 1012.8 hPa | 0 mm | - | 947 W/m² | - |
| 1777911292 | 23.89° C | 38% | 1013.1 hPa | 0 mm | - | 922 W/m² | - |
| 1777910688 | 23.33° C | 37% | 1013 hPa | 0 mm | - | 902 W/m² | - |
| 1777910086 | 22.78° C | 38% | 1013.2 hPa | 0 mm | - | 879 W/m² | - |
| 1777909486 | 21.67° C | 41% | 1013.3 hPa | 0 mm | - | 854 W/m² | - |
| 1777908882 | 21.67° C | 40% | 1013.5 hPa | 0 mm | - | 832 W/m² | - |
| 1777908282 | 22.22° C | 38% | 1013.6 hPa | 0 mm | - | 808 W/m² | - |
| 1777907680 | 21.11° C | 40% | 1013.6 hPa | 0 mm | - | 760 W/m² | - |
| 1777907077 | 21.11° C | 40% | 1013.8 hPa | 0 mm | - | 695 W/m² | - |
| 1777906478 | 21.11° C | 40% | 1014 hPa | 0 mm | - | 715 W/m² | - |
| 1777905877 | 20.56° C | 40% | 1013.9 hPa | 0 mm | - | 698 W/m² | - |
| 1777905277 | 20.56° C | 41% | 1014.1 hPa | 0 mm | - | 575 W/m² | - |
| 1777904671 | 19.44° C | 44% | 1013.9 hPa | 0 mm | - | 452 W/m² | - |
| 1777904070 | 18.89° C | 46% | 1014.3 hPa | 0 mm | - | 554 W/m² | - |
| 1777903469 | 18.33° C | 50% | 1014.2 hPa | 0 mm | - | 488 W/m² | - |
| 1777902868 | 17.78° C | 53% | 1014.4 hPa | 0 mm | - | 499 W/m² | - |
| 1777902268 | 16.67° C | 54% | 1014.5 hPa | 0 mm | - | 459 W/m² | - |
* Rain latest hour (hover to see other rain measurements)
** Current wind speed in m/s (hover to see current wind gust speed)